Time;durP1;ratioP1;P1;durP2;ratioP2;P2;SDS_P1;SDS_P2;PMS_P1;PMS_P2;Temp;Humidity;BMP_temperature;BMP_pressure;BME280_temperature;BME280_humidity;BME280_pressure;Samples;Min_cycle;Max_cycle;Signal;HPM_P1;HPM_P2
2022/03/17 00:00:32;;;;;;;88.35;64.00;;;;;;;6.02;97.68;100902.50;4932932;29;20832;-82
2022/03/17 00:02:57;;;;;;;96.10;66.40;;;;;;;6.07;97.87;100911.06;4933051;29;20252;-82
2022/03/17 00:05:22;;;;;;;97.60;67.28;;;;;;;6.03;97.61;100914.59;4916795;29;20075;-82
2022/03/17 00:07:48;;;;;;;98.60;66.75;;;;;;;5.98;97.87;100910.31;4933360;29;20035;-82
2022/03/17 00:10:15;;;;;;;103.63;72.25;;;;;;;6.00;97.92;100912.88;4932662;29;20415;-83
2022/03/17 00:12:43;;;;;;;93.05;67.68;;;;;;;5.93;98.33;100906.88;4916773;29;20059;-83
2022/03/17 00:15:09;;;;;;;99.60;65.68;;;;;;;5.93;98.20;100901.69;4916144;29;20051;-83
2022/03/17 00:17:35;;;;;;;98.47;69.93;;;;;;;5.88;98.19;100895.69;4916912;29;20035;-82
2022/03/17 00:20:02;;;;;;;101.97;70.53;;;;;;;5.89;98.19;100899.97;4933159;29;20046;-82
2022/03/17 00:22:28;;;;;;;91.65;64.55;;;;;;;5.81;97.78;100893.16;4916601;29;20039;-82
2022/03/17 00:24:54;;;;;;;95.40;65.70;;;;;;;5.90;97.60;100903.41;4932681;29;20032;-82
2022/03/17 00:27:20;;;;;;;93.63;64.22;;;;;;;5.86;97.29;100894.84;4932520;29;20095;-82
2022/03/17 00:29:46;;;;;;;99.15;64.53;;;;;;;5.74;97.63;100874.25;4916887;29;20065;-81
2022/03/17 00:32:12;;;;;;;94.05;64.10;;;;;;;5.79;97.38;100893.16;4929114;29;20140;-81
2022/03/17 00:35:35;;;;;;;90.88;63.45;;;;;;;5.79;97.06;100898.34;4934998;29;20056;-82
2022/03/17 00:37:24;;;;;;;95.10;63.90;;;;;;;5.74;97.11;100889.75;4934516;29;20032;-81
2022/03/17 00:39:50;;;;;;;92.55;63.38;;;;;;;5.64;97.01;100880.34;4933791;28;20032;-81
2022/03/17 00:42:16;;;;;;;96.32;65.03;;;;;;;5.73;96.71;100903.53;4951195;29;20051;-81
2022/03/17 00:44:41;;;;;;;87.32;61.08;;;;;;;5.68;96.49;100900.13;4951908;29;20769;-81
2022/03/17 00:47:07;;;;;;;83.28;57.50;;;;;;;5.59;95.94;100882.94;4935243;29;20142;-81
2022/03/17 00:49:33;;;;;;;89.32;59.90;;;;;;;5.57;95.76;100884.72;4935470;29;20027;-81
2022/03/17 00:51:58;;;;;;;89.80;58.30;;;;;;;5.57;95.89;100889.88;4951455;29;20126;-80
2022/03/17 00:54:23;;;;;;;83.97;57.53;;;;;;;5.64;95.58;100904.44;4951593;29;20035;-81
2022/03/17 00:56:49;;;;;;;80.75;56.90;;;;;;;5.54;95.34;100891.63;4935242;29;20032;-81
2022/03/17 00:59:14;;;;;;;80.95;55.97;;;;;;;5.59;95.26;100905.38;4951300;29;20062;-81
2022/03/17 01:01:40;;;;;;;79.95;55.88;;;;;;;5.49;95.13;100908.00;4935439;29;20038;-81
2022/03/17 01:04:05;;;;;;;97.18;58.92;;;;;;;5.46;95.09;100915.75;4935324;29;20114;-80
2022/03/17 01:06:30;;;;;;;79.78;53.88;;;;;;;5.56;94.31;100928.63;4951142;29;20431;-81
2022/03/17 01:08:56;;;;;;;84.40;55.83;;;;;;;5.42;94.49;100905.47;4951326;29;20472;-81
2022/03/17 01:11:21;;;;;;;84.07;56.83;;;;;;;5.49;94.66;100941.59;4935112;29;20054;-81
2022/03/17 01:13:46;;;;;;;85.68;59.83;;;;;;;5.36;94.46;100921.00;4938952;29;20048;-81
2022/03/17 01:16:12;;;;;;;83.50;58.72;;;;;;;5.38;94.88;100939.94;4933088;29;20031;-81
2022/03/17 01:18:37;;;;;;;86.00;60.53;;;;;;;5.31;94.65;100933.94;4933298;29;20032;-82
2022/03/17 01:21:03;;;;;;;87.38;59.78;;;;;;;5.24;95.39;100922.78;4934407;29;20036;-81
2022/03/17 01:23:28;;;;;;;91.00;61.85;;;;;;;5.18;96.35;100922.81;4934161;29;20042;-82
2022/03/17 01:25:53;;;;;;;83.70;59.22;;;;;;;5.03;96.42;100919.41;4935833;29;20036;-81
2022/03/17 01:28:19;;;;;;;86.78;58.22;;;;;;;5.02;97.21;100926.31;4938180;29;20687;-81
2022/03/17 01:30:45;;;;;;;80.57;55.45;;;;;;;4.94;97.22;100917.72;4938304;29;20038;-83
2022/03/17 01:33:10;;;;;;;74.65;52.47;;;;;;;4.88;97.49;100907.41;4936693;29;20530;-81
2022/03/17 01:35:35;;;;;;;81.10;55.28;;;;;;;4.75;98.06;100881.63;4938100;29;20098;-81
2022/03/17 01:38:01;;;;;;;87.50;62.20;;;;;;;4.80;98.24;100885.91;4938026;29;20437;-81
2022/03/17 01:40:26;;;;;;;83.35;57.25;;;;;;;4.80;98.02;100868.72;4938412;29;20059;-81
2022/03/17 01:42:52;;;;;;;78.30;56.55;;;;;;;4.79;97.68;100866.16;4938176;29;20102;-81
2022/03/17 01:45:17;;;;;;;85.50;57.67;;;;;;;4.68;97.63;100855.88;4937838;29;20031;-81
2022/03/17 01:47:44;;;;;;;84.63;55.63;;;;;;;4.72;97.35;100865.31;4937975;29;20119;-81
2022/03/17 01:50:15;;;;;;;80.95;52.90;;;;;;;4.72;96.24;100857.59;4937534;29;20031;-81
2022/03/17 01:52:41;;;;;;;81.53;54.95;;;;;;;4.81;94.91;100854.09;4938053;29;20527;-81
2022/03/17 01:55:08;;;;;;;80.75;52.40;;;;;;;4.86;94.24;100857.53;4937689;29;20060;-81
2022/03/17 01:57:34;;;;;;;68.97;47.83;;;;;;;4.91;93.54;100861.78;4937515;29;20035;-81
2022/03/17 02:00:00;;;;;;;78.55;51.00;;;;;;;4.98;92.83;100865.22;4936529;29;20031;-80
2022/03/17 02:02:26;;;;;;;79.30;49.70;;;;;;;4.94;92.49;100868.69;4937454;29;20476;-81
2022/03/17 02:04:52;;;;;;;77.90;51.20;;;;;;;4.99;92.38;100872.94;4937567;29;20038;-81
2022/03/17 02:07:19;;;;;;;77.00;51.00;;;;;;;5.02;92.25;100878.97;4937428;29;20043;-81
2022/03/17 02:09:46;;;;;;;72.78;49.95;;;;;;;5.07;91.58;100884.97;4937694;29;20019;-81
2022/03/17 02:14:58;;;;;;;74.53;49.00;;;;;;;5.03;91.58;100871.22;4937743;29;20392;-81
2022/03/17 02:17:24;;;;;;;73.90;49.53;;;;;;;5.06;91.09;100878.09;4937293;29;20036;-81
2022/03/17 02:19:50;;;;;;;81.75;52.08;;;;;;;5.06;91.25;100880.69;4937551;29;20389;-81
2022/03/17 02:22:19;;;;;;;74.60;50.15;;;;;;;4.99;91.50;100883.28;4935982;29;20122;-81
2022/03/17 02:27:33;;;;;;;84.97;55.25;;;;;;;4.92;92.07;100889.31;4937189;29;20091;-81
2022/03/17 02:29:59;;;;;;;83.63;53.88;;;;;;;4.89;92.20;100878.16;4935994;28;20543;-81
2022/03/17 02:32:25;;;;;;;85.85;57.03;;;;;;;4.86;92.36;100870.44;4937072;29;20036;-80
2022/03/17 02:34:51;;;;;;;83.05;56.33;;;;;;;4.83;92.61;100875.59;4937263;29;20023;-81
2022/03/17 02:37:18;;;;;;;95.53;64.35;;;;;;;4.86;93.16;100894.50;4936158;29;20028;-81
2022/03/17 02:39:43;;;;;;;90.90;61.00;;;;;;;4.82;93.60;100902.28;4935770;29;20471;-80
2022/03/17 02:42:10;;;;;;;83.47;56.78;;;;;;;4.58;93.80;100870.50;4937196;29;20067;-81
2022/03/17 02:44:37;;;;;;;94.50;57.38;;;;;;;4.72;94.19;100907.47;4935361;29;20027;-81
2022/03/17 02:47:03;;;;;;;89.28;59.53;;;;;;;4.70;94.49;100910.91;4937004;29;20063;-81
2022/03/17 02:49:28;;;;;;;92.30;61.03;;;;;;;4.60;94.68;100902.34;4935475;29;20054;-81
2022/03/17 02:51:54;;;;;;;92.78;63.70;;;;;;;4.57;95.18;100907.50;4936885;29;20110;-81
2022/03/17 02:54:19;;;;;;;89.97;61.05;;;;;;;4.49;95.55;100894.59;4935380;29;20039;-80
2022/03/17 02:56:45;;;;;;;90.80;60.22;;;;;;;4.49;95.87;100899.75;4936594;29;20554;-80
2022/03/17 02:59:10;;;;;;;92.35;62.08;;;;;;;4.39;96.14;100876.59;4935585;29;20039;-80
2022/03/17 03:01:35;;;;;;;106.60;69.05;;;;;;;4.48;96.21;100907.50;4935307;29;20078;-80
2022/03/17 03:04:01;;;;;;;101.00;70.60;;;;;;;4.35;96.45;100877.44;4935436;29;20118;-80
2022/03/17 03:06:26;;;;;;;89.80;62.15;;;;;;;4.39;96.73;100885.19;4935149;29;20365;-81
2022/03/17 03:08:52;;;;;;;100.05;62.60;;;;;;;4.38;96.72;100887.72;4936421;29;20171;-81
2022/03/17 03:11:17;;;;;;;95.03;62.13;;;;;;;4.38;96.78;100887.72;4936523;29;20086;-81
2022/03/17 03:13:43;;;;;;;95.85;62.97;;;;;;;4.27;97.05;100880.03;4934997;29;20138;-81
2022/03/17 03:16:09;;;;;;;102.25;68.57;;;;;;;4.29;97.60;100882.59;4936749;29;20031;-81
2022/03/17 03:18:34;;;;;;;93.65;63.58;;;;;;;4.29;97.54;100900.66;4934826;29;20031;-80
2022/03/17 03:20:59;;;;;;;96.65;64.45;;;;;;;4.22;97.78;100904.97;4935067;29;20030;-80
2022/03/17 03:23:25;;;;;;;95.70;65.63;;;;;;;4.19;98.28;100913.56;4936303;29;20472;-81
2022/03/17 03:25:50;;;;;;;106.70;74.13;;;;;;;4.17;98.82;100904.09;4936191;29;20024;-81
2022/03/17 03:28:16;;;;;;;112.93;74.35;;;;;;;4.05;99.02;100884.34;4933267;29;20072;-81
2022/03/17 03:30:41;;;;;;;113.75;74.28;;;;;;;4.06;99.28;100900.66;4933728;29;20032;-81
2022/03/17 03:33:08;;;;;;;109.03;74.70;;;;;;;3.94;99.42;100886.91;4933666;29;20047;-81
2022/03/17 03:38:19;;;;;;;94.93;63.15;;;;;;;3.92;99.58;100898.09;4933341;29;20450;-80
2022/03/17 03:40:45;;;;;;;95.40;61.92;;;;;;;3.97;99.60;100911.84;4933466;29;20039;-80
2022/03/17 03:43:10;;;;;;;100.68;64.47;;;;;;;3.91;99.31;100914.41;4917565;29;20190;-80
2022/03/17 03:45:36;;;;;;;87.72;61.10;;;;;;;3.90;99.57;100921.28;4917188;29;20035;-80
2022/03/17 03:48:01;;;;;;;99.00;65.85;;;;;;;3.88;99.61;100922.16;4933396;29;20163;-81
2022/03/17 03:50:28;;;;;;;104.68;67.93;;;;;;;3.80;99.76;100910.97;4916279;29;20031;-81
2022/03/17 03:52:53;;;;;;;103.13;63.83;;;;;;;3.79;99.92;100914.38;4917303;29;20468;-81
2022/03/17 03:55:19;;;;;;;99.60;63.22;;;;;;;3.71;100.00;100904.09;4917058;29;20166;-81
2022/03/17 03:57:46;;;;;;;97.85;64.30;;;;;;;3.76;100.00;100938.44;4917204;29;20032;-81
2022/03/17 04:02:56;;;;;;;102.22;65.60;;;;;;;3.67;100.00;100938.44;4935640;29;20110;-82
2022/03/17 04:05:26;;;;;;;95.45;65.57;;;;;;;3.68;100.00;100950.44;4934117;29;20023;-81
2022/03/17 04:07:55;;;;;;;94.20;62.60;;;;;;;3.61;100.00;100936.69;4934159;29;20106;-82
2022/03/17 04:10:20;;;;;;;102.18;67.22;;;;;;;3.63;100.00;100944.44;4934007;29;20114;-82
2022/03/17 04:12:46;;;;;;;96.68;63.20;;;;;;;3.60;100.00;100949.56;4933991;29;20134;-81
2022/03/17 04:15:11;;;;;;;102.55;67.32;;;;;;;3.69;100.00;100965.06;4935479;29;20523;-81
2022/03/17 04:17:37;;;;;;;97.88;65.78;;;;;;;3.66;100.00;100965.03;4935008;29;20032;-82
2022/03/17 04:20:05;;;;;;;103.88;68.07;;;;;;;3.63;100.00;100960.75;4935224;29;20031;-82
2022/03/17 04:22:31;;;;;;;101.90;65.43;;;;;;;3.63;100.00;100967.63;4933858;29;20039;-82
2022/03/17 04:24:56;;;;;;;95.78;63.78;;;;;;;3.49;100.00;100955.53;4934077;29;20061;-82
2022/03/17 04:27:22;;;;;;;104.50;70.70;;;;;;;3.51;100.00;100965.88;4934941;29;20040;-82
2022/03/17 04:29:47;;;;;;;96.93;64.75;;;;;;;3.46;100.00;100967.56;4935076;29;20152;-82
2022/03/17 04:32:13;;;;;;;104.90;66.57;;;;;;;3.47;100.00;100971.84;4934993;29;20036;-81
2022/03/17 04:34:38;;;;;;;101.95;65.80;;;;;;;3.45;100.00;100973.56;4934774;29;20063;-81
2022/03/17 04:37:03;;;;;;;97.78;65.65;;;;;;;3.43;100.00;100991.59;4934855;29;20039;-81
2022/03/17 04:39:29;;;;;;;106.93;68.47;;;;;;;3.35;100.00;100987.25;4933587;28;20027;-81
2022/03/17 04:41:54;;;;;;;102.05;65.78;;;;;;;3.43;100.00;101001.03;4933616;29;20050;-81
2022/03/17 04:44:19;;;;;;;109.95;67.90;;;;;;;3.39;100.00;101002.72;4933728;29;20027;-83
2022/03/17 04:46:46;;;;;;;100.88;68.32;;;;;;;3.32;100.00;100982.09;4934756;29;20035;-80
2022/03/17 04:49:12;;;;;;;100.85;67.65;;;;;;;3.40;100.00;101011.31;4934809;29;20083;-80
2022/03/17 04:51:37;;;;;;;104.55;67.32;;;;;;;3.39;100.00;101017.31;4933293;29;20032;-80
2022/03/17 04:54:03;;;;;;;100.70;66.40;;;;;;;3.34;100.00;101011.28;4934730;29;20031;-80
2022/03/17 04:56:28;;;;;;;99.68;67.80;;;;;;;3.22;100.00;101000.06;4933142;29;20039;-81
2022/03/17 04:58:54;;;;;;;99.38;64.97;;;;;;;3.21;100.00;101013.81;4933482;29;20107;-81
2022/03/17 05:01:19;;;;;;;99.82;68.03;;;;;;;3.27;100.00;101030.13;4938323;29;20063;-82
2022/03/17 05:03:44;;;;;;;102.22;68.32;;;;;;;3.22;100.00;101022.38;4940847;29;20028;-82
2022/03/17 05:06:12;;;;;;;104.57;68.10;;;;;;;3.17;100.00;101022.38;4940966;29;20036;-82
2022/03/17 05:08:38;;;;;;;96.18;65.57;;;;;;;3.19;100.00;101028.38;4939669;28;20063;-82
2022/03/17 05:11:04;;;;;;;109.38;71.57;;;;;;;3.13;100.00;101015.47;4941073;29;20059;-82
2022/03/17 05:13:30;;;;;;;107.28;70.72;;;;;;;3.21;100.00;101036.13;4939343;29;20534;-81
2022/03/17 05:15:56;;;;;;;98.75;68.63;;;;;;;3.09;100.00;101021.47;4938433;29;20047;-81
2022/03/17 05:18:21;;;;;;;102.63;67.93;;;;;;;3.19;100.00;101050.69;4938611;29;20651;-81
2022/03/17 05:20:47;;;;;;;103.40;68.97;;;;;;;3.22;100.00;101046.41;4919140;29;20070;-81
2022/03/17 05:23:18;;;;;;;105.55;68.25;;;;;;;3.28;100.00;101049.88;4938586;29;20388;-81
2022/03/17 05:25:45;;;;;;;98.30;67.18;;;;;;;3.33;100.00;101048.19;4919680;29;20070;-81
2022/03/17 05:28:11;;;;;;;104.15;67.60;;;;;;;3.36;100.00;101055.94;4919265;29;20543;-81
2022/03/17 05:30:38;;;;;;;101.10;65.07;;;;;;;3.46;100.00;101060.28;4919214;29;20051;-81
2022/03/17 05:33:05;;;;;;;104.38;67.55;;;;;;;3.56;100.00;101069.78;4919433;29;20111;-80
2022/03/17 05:35:31;;;;;;;99.38;67.95;;;;;;;3.71;100.00;101074.16;4919026;29;20066;-81
2022/03/17 05:37:56;;;;;;;102.00;70.97;;;;;;;3.85;100.00;101076.78;4919322;29;20484;-81
2022/03/17 05:40:23;;;;;;;107.88;71.20;;;;;;;4.01;100.00;101075.97;4903487;29;20032;-81
2022/03/17 05:42:53;;;;;;;103.70;68.38;;;;;;;4.16;100.00;101081.16;4919080;29;20449;-82
2022/03/17 05:45:20;;;;;;;;;;;;;;;4.37;100.00;101085.50;4903917;29;20100;-81
2022/03/17 05:47:47;;;;;;;113.47;70.93;;;;;;;4.53;99.97;101085.53;4919956;29;19911;-81
2022/03/17 05:50:15;;;;;;;105.80;69.15;;;;;;;4.64;98.99;101076.09;4921808;29;20372;-80
2022/03/17 05:52:44;;;;;;;106.57;69.97;;;;;;;4.77;98.06;101064.91;4920194;29;20024;-81
2022/03/17 05:55:11;;;;;;;108.40;71.70;;;;;;;5.07;96.47;101087.25;4920361;29;20032;-81
2022/03/17 05:57:38;;;;;;;100.80;66.90;;;;;;;5.30;95.85;101087.19;4921184;29;20088;-82
2022/03/17 06:00:06;;;;;;;107.45;68.65;;;;;;;5.51;94.29;101079.41;4921809;29;20429;-81
2022/03/17 06:02:32;;;;;;;103.43;68.85;;;;;;;5.81;93.56;101081.88;4921523;29;20070;-83
2022/03/17 06:04:58;;;;;;;105.70;70.63;;;;;;;6.09;91.75;101080.06;4920087;29;20040;-81
2022/03/17 06:07:23;;;;;;;106.43;69.07;;;;;;;6.17;90.99;101071.38;4921782;29;20032;-78
2022/03/17 06:09:49;;;;;;;104.88;70.82;;;;;;;6.33;89.78;101072.16;4919993;29;20530;-79
2022/03/17 06:12:15;;;;;;;102.25;69.35;;;;;;;6.50;88.44;101082.41;4919308;29;20143;-80
2022/03/17 06:14:41;;;;;;;113.93;76.05;;;;;;;6.65;87.69;101082.28;4916934;29;20039;-80
2022/03/17 06:17:45;;;;;;;99.75;68.43;;;;;;;6.70;87.19;101093.47;4923868;29;20028;-95
2022/03/17 06:20:31;;;;;;;103.18;70.03;;;;;;;6.87;86.41;101095.94;4917710;29;20032;-91
2022/03/17 06:22:58;;;;;;;101.45;68.60;;;;;;;7.11;86.32;101099.16;4915868;29;20490;-81
2022/03/17 06:25:26;;;;;;;100.28;67.68;;;;;;;7.23;84.95;101102.50;4899983;29;20040;-80
2022/03/17 06:27:52;;;;;;;103.75;69.15;;;;;;;7.17;84.99;101086.16;4899992;29;20044;-82
2022/03/17 06:30:20;;;;;;;111.40;70.95;;;;;;;7.19;84.21;101097.38;4900156;29;20028;-83
2022/03/17 06:32:46;;;;;;;108.10;71.40;;;;;;;7.12;84.53;101095.69;4899671;29;20046;-82
2022/03/17 06:35:17;;;;;;;101.82;70.65;;;;;;;7.19;84.35;101097.38;4899886;29;20066;-83
2022/03/17 06:37:48;;;;;;;111.72;71.63;;;;;;;7.35;83.20;101082.53;4899226;29;20111;-82
2022/03/17 06:40:15;;;;;;;97.50;66.05;;;;;;;7.32;82.20;101078.22;4899820;29;20106;-83
2022/03/17 06:42:41;;;;;;;105.63;69.60;;;;;;;7.33;83.00;101079.06;4915323;29;20124;-81
2022/03/17 06:45:07;;;;;;;108.00;70.25;;;;;;;7.50;82.40;101087.56;4915556;29;20476;-80
2022/03/17 06:47:32;;;;;;;104.80;71.50;;;;;;;7.55;82.05;101100.47;4915143;29;20039;-83
2022/03/17 06:49:58;;;;;;;117.82;83.75;;;;;;;7.29;82.32;101100.72;4915437;29;20044;-84
2022/03/17 06:52:23;;;;;;;104.93;71.20;;;;;;;7.08;82.31;101099.19;4899498;29;20036;-81
2022/03/17 06:54:50;;;;;;;120.65;81.45;;;;;;;7.02;82.79;101104.44;4917095;29;20040;-81
2022/03/17 06:57:19;;;;;;;104.70;70.05;;;;;;;6.85;83.01;101083.84;4917652;29;20028;-80
2022/03/17 06:59:46;;;;;;;102.78;68.50;;;;;;;6.88;83.40;101094.19;4917769;29;20066;-82
2022/03/17 07:02:11;;;;;;;113.22;76.78;;;;;;;6.91;83.06;101101.91;4916345;29;20083;-82
2022/03/17 07:04:37;;;;;;;106.95;71.35;;;;;;;6.91;83.41;101102.81;4916099;29;20044;-82
2022/03/17 07:07:02;;;;;;;111.85;74.80;;;;;;;6.87;83.50;101103.69;4916129;29;20035;-82
2022/03/17 07:09:28;;;;;;;107.65;72.25;;;;;;;7.01;83.66;101103.56;4916371;29;20040;-82
2022/03/17 07:11:53;;;;;;;117.53;75.25;;;;;;;7.05;83.83;101097.50;4915856;29;20028;-82
2022/03/17 07:14:18;;;;;;;104.13;69.03;;;;;;;6.98;83.80;101085.47;4916162;29;20131;-81
2022/03/17 07:16:45;;;;;;;109.20;72.55;;;;;;;7.00;83.87;101113.09;4916964;29;20125;-81
2022/03/17 07:19:11;;;;;;;110.00;75.53;;;;;;;6.87;83.92;101103.69;4916002;29;20063;-83
2022/03/17 07:21:36;;;;;;;106.28;74.22;;;;;;;6.90;84.40;101102.81;4916913;29;20034;-83
2022/03/17 07:24:03;;;;;;;103.55;68.43;;;;;;;6.96;84.46;101115.72;4916925;29;20032;-83
2022/03/17 07:26:28;;;;;;;106.55;71.55;;;;;;;7.11;84.41;101112.13;4915786;29;20075;-83
2022/03/17 07:28:54;;;;;;;103.53;69.90;;;;;;;7.02;83.99;101094.06;4916972;29;20032;-82
2022/03/17 07:31:20;;;;;;;110.70;73.80;;;;;;;7.11;83.69;101104.34;4915805;29;20051;-83
2022/03/17 07:33:48;;;;;;;108.03;72.93;;;;;;;7.16;83.89;101105.16;4915572;29;20523;-83
2022/03/17 07:36:13;;;;;;;101.18;67.13;;;;;;;7.24;84.42;101106.81;4915657;29;20047;-83
2022/03/17 07:38:38;;;;;;;100.07;72.60;;;;;;;7.24;83.70;101103.34;4915495;29;20058;-83
2022/03/17 07:41:04;;;;;;;108.00;74.10;;;;;;;7.38;83.81;101117.06;4917021;29;20028;-83
2022/03/17 07:43:29;;;;;;;112.50;75.75;;;;;;;7.21;84.22;101127.59;4915780;29;20028;-83
2022/03/17 07:45:54;;;;;;;110.57;76.50;;;;;;;7.12;84.65;101129.38;4915466;29;20389;-83
2022/03/17 07:48:20;;;;;;;109.15;72.60;;;;;;;7.12;84.76;101103.47;4915548;29;20036;-81
2022/03/17 07:50:46;;;;;;;103.53;68.20;;;;;;;7.34;85.44;101112.78;4915088;29;20503;-83
2022/03/17 07:53:11;;;;;;;111.60;76.40;;;;;;;7.46;84.68;101117.84;4915402;29;20075;-82
2022/03/17 07:55:37;;;;;;;102.43;69.43;;;;;;;7.64;84.76;101129.75;4915294;29;20024;-83
2022/03/17 07:58:03;;;;;;;109.03;72.65;;;;;;;7.68;84.31;101136.59;4915290;29;20540;-82
2022/03/17 08:00:29;;;;;;;115.03;76.82;;;;;;;7.68;83.85;101139.22;4915172;29;20482;-83
2022/03/17 08:02:54;;;;;;;112.88;77.80;;;;;;;7.67;84.25;101149.59;4915113;29;20028;-83
2022/03/17 08:05:20;;;;;;;107.32;70.80;;;;;;;7.70;83.88;101145.22;4915099;29;20024;-83
2022/03/17 08:07:45;;;;;;;111.35;76.50;;;;;;;7.72;83.72;101127.91;4914865;29;20068;-83
2022/03/17 08:10:13;;;;;;;97.22;70.28;;;;;;;7.89;83.58;101147.63;4913732;29;20068;-82
2022/03/17 08:12:39;;;;;;;103.97;69.28;;;;;;;7.97;83.87;101135.44;4897634;29;20462;-82
2022/03/17 08:15:05;;;;;;;119.50;79.03;;;;;;;8.04;82.10;101139.63;4898013;29;20048;-79
2022/03/17 08:17:31;;;;;;;114.18;74.68;;;;;;;7.90;82.09;101137.22;4913850;29;20063;-79
2022/03/17 08:19:57;;;;;;;106.80;78.35;;;;;;;7.99;81.80;101129.31;4897670;29;20047;-79
2022/03/17 08:22:23;;;;;;;117.75;81.78;;;;;;;7.95;81.48;101116.41;4897977;29;20028;-79
2022/03/17 08:24:49;;;;;;;112.82;79.47;;;;;;;7.96;81.23;101120.72;4913599;29;20051;-78
2022/03/17 08:27:14;;;;;;;132.07;87.80;;;;;;;7.97;80.43;101109.47;4897959;29;20396;-78
2022/03/17 08:29:40;;;;;;;101.07;71.95;;;;;;;7.97;80.17;101106.88;4897651;29;20544;-78
2022/03/17 08:32:06;;;;;;;118.35;77.85;;;;;;;8.12;80.45;101109.25;4913736;29;20032;-78
2022/03/17 08:34:32;;;;;;;109.90;78.80;;;;;;;8.23;79.55;101120.38;4897718;29;20032;-78
2022/03/17 08:36:59;;;;;;;110.55;79.60;;;;;;;8.28;79.69;101116.84;4912709;29;20075;-78
2022/03/17 08:39:25;;;;;;;108.40;76.57;;;;;;;8.29;79.39;101103.00;4913578;29;20124;-79
2022/03/17 08:41:52;;;;;;;116.05;81.55;;;;;;;8.37;79.07;101114.16;4914960;29;20127;-78
2022/03/17 08:44:18;;;;;;;109.72;75.97;;;;;;;8.44;79.27;101127.03;4914668;29;20036;-79
2022/03/17 08:49:27;;;;;;;113.95;78.88;;;;;;;8.49;78.15;101124.38;4916166;29;20495;-79
2022/03/17 08:51:56;;;;;;;112.82;81.50;;;;;;;8.44;78.27;101126.19;4915593;29;20028;-78
2022/03/17 08:54:23;;;;;;;118.13;81.43;;;;;;;8.46;77.66;101130.44;4916027;29;20043;-78
2022/03/17 08:56:59;;;;;;;111.05;79.05;;;;;;;8.41;77.80;101116.69;4931913;29;20059;-78
2022/03/17 08:59:31;;;;;;;115.60;77.88;;;;;;;8.55;77.79;101139.84;4932246;29;20036;-78
2022/03/17 09:02:00;;;;;;;112.93;78.95;;;;;;;8.58;77.01;101120.78;4932110;29;20523;-79
2022/03/17 09:04:27;;;;;;;107.85;74.63;;;;;;;8.59;76.55;101118.16;4932144;29;20213;-78
2022/03/17 09:06:59;;;;;;;107.55;73.70;;;;;;;8.70;76.35;101136.19;4932036;29;20035;-78
2022/03/17 09:09:29;;;;;;;107.53;73.10;;;;;;;8.65;76.05;101135.41;4932117;29;20035;-79
2022/03/17 09:11:55;;;;;;;107.78;76.85;;;;;;;8.75;76.13;101131.78;4915779;29;20403;-79
2022/03/17 09:14:21;;;;;;;94.07;68.60;;;;;;;8.81;76.30;101133.44;4932077;29;20047;-79
2022/03/17 09:16:46;;;;;;;99.28;68.93;;;;;;;8.98;76.25;101136.63;4931764;29;20091;-80
2022/03/17 09:19:12;;;;;;;105.82;73.30;;;;;;;8.93;75.94;101123.69;4932199;29;20122;-78
2022/03/17 09:21:37;;;;;;;105.63;73.55;;;;;;;9.17;76.10;101145.81;4931981;29;20036;-79
2022/03/17 09:24:03;;;;;;;103.13;70.57;;;;;;;9.15;74.68;101142.38;4932200;29;20044;-78
2022/03/17 09:26:30;;;;;;;98.28;68.05;;;;;;;9.22;74.98;101140.53;4932107;29;20111;-80
2022/03/17 09:28:56;;;;;;;101.93;70.00;;;;;;;8.99;73.62;101117.53;4914493;29;20036;-79
2022/03/17 09:31:22;;;;;;;92.95;63.50;;;;;;;9.10;73.18;101132.94;4915574;29;20034;-79
2022/03/17 09:33:48;;;;;;;92.90;64.72;;;;;;;9.29;73.67;101136.09;4914020;29;20059;-79
2022/03/17 09:36:14;;;;;;;96.47;68.63;;;;;;;9.29;73.56;101142.16;4914241;29;20082;-80
2022/03/17 09:38:40;;;;;;;90.63;64.82;;;;;;;9.27;74.45;101124.84;4913892;29;20032;-80
2022/03/17 09:41:24;;;;;;;101.97;68.90;;;;;;;9.47;74.86;101146.16;4915369;29;20049;-80
2022/03/17 09:43:53;;;;;;;90.72;64.88;;;;;;;9.35;74.69;101136.81;4914112;29;20093;-79
2022/03/17 09:46:21;;;;;;;98.13;68.15;;;;;;;9.22;75.78;101146.56;4914134;29;20055;-80
2022/03/17 09:48:52;;;;;;;93.78;67.95;;;;;;;9.25;76.84;101143.09;4917450;29;20064;-83
2022/03/17 09:51:21;;;;;;;104.63;72.18;;;;;;;9.18;77.17;101133.66;4919217;29;20388;-84
2022/03/17 09:53:47;;;;;;;107.35;76.55;;;;;;;9.21;77.24;101157.88;4917411;29;20103;-85
2022/03/17 09:56:12;;;;;;;100.55;71.07;;;;;;;9.25;77.30;101162.13;4917678;29;20489;-80
2022/03/17 09:58:38;;;;;;;101.78;73.45;;;;;;;9.30;77.09;101158.59;4917587;29;20035;-79
2022/03/17 10:01:05;;;;;;;102.43;72.40;;;;;;;9.29;77.57;101155.16;4915921;29;20183;-78
2022/03/17 10:03:34;;;;;;;95.65;71.53;;;;;;;9.34;77.63;101152.47;4900427;29;20043;-80
2022/03/17 10:06:05;;;;;;;95.38;67.32;;;;;;;9.55;77.68;101159.03;4916031;29;20044;-79
2022/03/17 10:08:33;;;;;;;101.55;69.80;;;;;;;9.53;76.38;101159.06;4916208;29;20451;-80
2022/03/17 10:10:59;;;;;;;89.22;64.13;;;;;;;9.57;76.49;101163.31;4900129;29;20048;-80
2022/03/17 10:13:25;;;;;;;95.38;65.65;;;;;;;9.42;74.75;101143.63;4900220;29;20052;-80
2022/03/17 10:16:17;;;;;;;90.45;63.90;;;;;;;9.56;73.82;101169.38;4900021;29;20096;-80
2022/03/17 10:18:45;;;;;;;94.22;61.80;;;;;;;9.56;74.00;101156.38;4899883;29;20123;-81
2022/03/17 10:21:24;;;;;;;79.20;57.42;;;;;;;9.79;73.64;101158.56;4915990;29;20199;-80
2022/03/17 10:23:54;;;;;;;66.95;47.78;;;;;;;9.82;66.58;101161.13;4899824;29;20036;-81
2022/03/17 10:26:34;;;;;;;71.73;45.73;;;;;;;9.70;58.48;101161.34;4900048;29;20040;-81
2022/03/17 10:29:05;;;;;;;53.45;39.08;;;;;;;9.74;58.15;101153.47;4899654;29;20032;-81
2022/03/17 10:31:31;;;;;;;56.60;39.05;;;;;;;9.86;58.01;101146.28;4916437;29;20044;-82
2022/03/17 10:33:57;;;;;;;59.35;40.58;;;;;;;9.83;56.59;101130.75;4916733;29;20028;-81
2022/03/17 10:36:22;;;;;;;57.35;39.85;;;;;;;9.96;54.99;101155.63;4916909;29;20492;-81
2022/03/17 10:38:51;;;;;;;54.55;37.40;;;;;;;9.92;54.54;101148.78;4917848;29;20127;-82
2022/03/17 10:41:17;;;;;;;64.65;42.58;;;;;;;9.89;53.79;101144.47;4916705;29;20032;-78
2022/03/17 10:43:43;;;;;;;62.67;42.17;;;;;;;9.93;55.01;101148.75;4917864;29;20047;-78
2022/03/17 10:46:21;;;;;;;54.83;39.55;;;;;;;9.99;55.34;101158.19;4918058;29;20036;-76
2022/03/17 10:48:57;;;;;;;55.97;39.78;;;;;;;10.08;55.20;101149.34;4917813;29;20035;-76
2022/03/17 10:51:35;;;;;;;58.55;39.35;;;;;;;10.09;53.85;101157.09;4917933;29;20124;-77
2022/03/17 10:54:10;;;;;;;55.08;39.28;;;;;;;9.99;53.50;101146.03;4917462;29;20035;-77
2022/03/17 10:56:38;;;;;;;51.50;35.35;;;;;;;9.96;51.83;101145.22;4917733;29;20080;-78
2022/03/17 10:59:05;;;;;;;49.67;36.40;;;;;;;10.08;52.10;101162.34;4915916;29;20091;-77
2022/03/17 11:01:39;;;;;;;53.50;38.22;;;;;;;9.93;51.72;101138.31;4917775;29;20115;-77
2022/03/17 11:04:05;;;;;;;54.53;38.42;;;;;;;10.08;51.84;101149.34;4916147;29;20131;-77
2022/03/17 11:06:32;;;;;;;50.88;36.80;;;;;;;10.08;51.50;101144.13;4916208;29;20031;-77
2022/03/17 11:09:01;;;;;;;59.80;38.95;;;;;;;10.15;51.28;101154.34;4916526;29;20561;-78
2022/03/17 11:11:31;;;;;;;56.13;37.45;;;;;;;10.25;51.64;101160.28;4916306;29;20039;-78
2022/03/17 11:13:58;;;;;;;56.10;38.53;;;;;;;10.27;51.64;101152.44;4915879;29;20062;-77
2022/03/17 11:16:55;;;;;;;56.65;37.35;;;;;;;10.42;51.34;101159.91;4917439;29;20450;-77
2022/03/17 11:19:24;;;;;;;54.53;38.83;;;;;;;10.41;50.62;101146.03;4896054;29;20044;-77
2022/03/17 11:22:05;;;;;;;56.85;38.50;;;;;;;10.40;50.04;101149.50;4880131;29;20033;-77
2022/03/17 11:24:31;;;;;;;52.85;35.78;;;;;;;10.41;50.50;101137.38;4896109;29;20037;-77